Holcombville, New York
Current Conditions -  °F | °C
As of 8:53 PM on Wednesday 26 Nov 2014 (Local Time) from KGFL Reporting Station
Light Snow Light Snow  
Wind Chill: 23°   Ceiling: 2800
Heat Index: 31°   Visibility: 3mi
Dew Point: 28°   Wind: 8mph
Humidity: 89%   Direction: 360°N
Pressure: 29.95"   Gusts: NA
Location:  43.7289°N, 73.9027°W
Report Text: KGFL 270153Z AUTO 36007KT 3SM -SN BR FEW022 OVC028 M01/M02 A2995 RMK AO2 SLP148 P0002 T10061022
Loading
Personal Weather Stations






























Interactive Weather Map New forecast layout! Learn more

10-Day Weather Forecast

Advertisements
Track Severe Weather on mobile